sensor_id;sensor_type;location;lat;lon;timestamp;pressure;altitude;pressure_sealevel;temperature;humidity
63204;BME280;49297;43.210;27.914;2023-05-23T00:00:59;100749.03;;;18.47;59.27
63204;BME280;49297;43.210;27.914;2023-05-23T00:03:26;100754.19;;;18.49;59.35
63204;BME280;49297;43.210;27.914;2023-05-23T00:05:53;100741.63;;;18.49;59.40
63204;BME280;49297;43.210;27.914;2023-05-23T00:08:21;100748.25;;;18.53;59.26
63204;BME280;49297;43.210;27.914;2023-05-23T00:10:47;100755.28;;;18.54;59.36
63204;BME280;49297;43.210;27.914;2023-05-23T00:13:14;100747.25;;;18.54;59.36
63204;BME280;49297;43.210;27.914;2023-05-23T00:15:41;100751.03;;;18.60;59.30
63204;BME280;49297;43.210;27.914;2023-05-23T00:18:08;100748.97;;;18.62;58.94
63204;BME280;49297;43.210;27.914;2023-05-23T00:20:36;100737.63;;;18.60;58.74
63204;BME280;49297;43.210;27.914;2023-05-23T00:23:06;100738.34;;;18.54;58.72
63204;BME280;49297;43.210;27.914;2023-05-23T00:25:33;100738.16;;;18.55;58.87
63204;BME280;49297;43.210;27.914;2023-05-23T00:28:02;100745.22;;;18.56;58.96
63204;BME280;49297;43.210;27.914;2023-05-23T00:30:32;100747.06;;;18.56;58.77
63204;BME280;49297;43.210;27.914;2023-05-23T00:32:59;100742.34;;;18.58;58.70
63204;BME280;49297;43.210;27.914;2023-05-23T00:35:26;100740.94;;;18.62;58.62
63204;BME280;49297;43.210;27.914;2023-05-23T00:37:52;100741.56;;;18.64;58.50
63204;BME280;49297;43.210;27.914;2023-05-23T00:40:25;100732.34;;;18.67;58.26
63204;BME280;49297;43.210;27.914;2023-05-23T00:42:52;100733.97;;;18.68;57.84
63204;BME280;49297;43.210;27.914;2023-05-23T00:45:20;100731.75;;;18.71;57.74
63204;BME280;49297;43.210;27.914;2023-05-23T00:47:47;100727.88;;;18.74;57.55
63204;BME280;49297;43.210;27.914;2023-05-23T00:50:14;100728.25;;;18.71;57.67
63204;BME280;49297;43.210;27.914;2023-05-23T00:52:41;100726.38;;;18.71;57.74
63204;BME280;49297;43.210;27.914;2023-05-23T00:55:09;100731.56;;;18.73;57.54
63204;BME280;49297;43.210;27.914;2023-05-23T00:57:36;100732.00;;;18.76;57.28
63204;BME280;49297;43.210;27.914;2023-05-23T01:00:13;100726.94;;;18.81;57.17
63204;BME280;49297;43.210;27.914;2023-05-23T01:02:45;100731.06;;;18.84;57.17
63204;BME280;49297;43.210;27.914;2023-05-23T01:05:13;100724.69;;;18.85;57.07
63204;BME280;49297;43.210;27.914;2023-05-23T01:07:53;100720.81;;;18.88;56.92
63204;BME280;49297;43.210;27.914;2023-05-23T01:10:23;100716.47;;;18.87;56.89
63204;BME280;49297;43.210;27.914;2023-05-23T01:13:51;100716.84;;;18.83;56.69
63204;BME280;49297;43.210;27.914;2023-05-23T01:16:06;100731.28;;;18.82;56.95
63204;BME280;49297;43.210;27.914;2023-05-23T01:18:37;100720.72;;;18.81;57.17
63204;BME280;49297;43.210;27.914;2023-05-23T01:21:10;100722.38;;;18.82;57.13
63204;BME280;49297;43.210;27.914;2023-05-23T01:29:32;100715.84;;;18.85;57.10
63204;BME280;49297;43.210;27.914;2023-05-23T01:32:01;100706.56;;;18.87;56.73
63204;BME280;49297;43.210;27.914;2023-05-23T01:34:29;100711.28;;;18.85;56.81
63204;BME280;49297;43.210;27.914;2023-05-23T01:36:55;100712.28;;;18.84;56.87
63204;BME280;49297;43.210;27.914;2023-05-23T01:39:22;100708.31;;;18.80;56.90
63204;BME280;49297;43.210;27.914;2023-05-23T01:41:49;100713.53;;;18.81;56.88
63204;BME280;49297;43.210;27.914;2023-05-23T01:44:15;100713.16;;;18.85;56.87
63204;BME280;49297;43.210;27.914;2023-05-23T01:46:41;100707.59;;;18.86;56.81
63204;BME280;49297;43.210;27.914;2023-05-23T01:49:11;100705.72;;;18.87;56.89
63204;BME280;49297;43.210;27.914;2023-05-23T01:51:38;100704.06;;;18.86;57.03
63204;BME280;49297;43.210;27.914;2023-05-23T01:54:04;100706.13;;;18.83;57.14
63204;BME280;49297;43.210;27.914;2023-05-23T01:56:30;100698.06;;;18.83;57.17
63204;BME280;49297;43.210;27.914;2023-05-23T01:58:57;100702.78;;;18.81;57.18
63204;BME280;49297;43.210;27.914;2023-05-23T02:01:22;100696.13;;;18.77;57.38
63204;BME280;49297;43.210;27.914;2023-05-23T02:03:48;100696.13;;;18.77;57.40
63204;BME280;49297;43.210;27.914;2023-05-23T02:06:14;100701.88;;;18.74;57.21
63204;BME280;49297;43.210;27.914;2023-05-23T02:08:40;100712.22;;;18.77;56.96
63204;BME280;49297;43.210;27.914;2023-05-23T02:11:05;100704.00;;;18.79;57.20
63204;BME280;49297;43.210;27.914;2023-05-23T02:13:33;100711.00;;;18.80;57.09
63204;BME280;49297;43.210;27.914;2023-05-23T02:15:59;100705.63;;;18.80;57.09
63204;BME280;49297;43.210;27.914;2023-05-23T02:18:25;100694.28;;;18.78;56.99
63204;BME280;49297;43.210;27.914;2023-05-23T02:20:54;100698.47;;;18.65;57.03
63204;BME280;49297;43.210;27.914;2023-05-23T02:23:21;100694.78;;;18.67;57.12
63204;BME280;49297;43.210;27.914;2023-05-23T02:25:48;100695.63;;;18.67;57.26
63204;BME280;49297;43.210;27.914;2023-05-23T02:28:14;100688.22;;;18.69;57.36
63204;BME280;49297;43.210;27.914;2023-05-23T02:30:40;100697.50;;;18.73;57.40
63204;BME280;49297;43.210;27.914;2023-05-23T02:33:06;100696.69;;;18.73;57.32
63204;BME280;49297;43.210;27.914;2023-05-23T02:35:33;100700.59;;;18.70;57.49
63204;BME280;49297;43.210;27.914;2023-05-23T02:38:00;100703.28;;;18.70;57.55
63204;BME280;49297;43.210;27.914;2023-05-23T02:40:26;100698.94;;;18.69;57.49
63204;BME280;49297;43.210;27.914;2023-05-23T02:42:52;100700.78;;;18.69;57.88
63204;BME280;49297;43.210;27.914;2023-05-23T02:45:19;100696.88;;;18.71;57.73
63204;BME280;49297;43.210;27.914;2023-05-23T02:47:45;100695.88;;;18.72;57.86
63204;BME280;49297;43.210;27.914;2023-05-23T02:50:11;100697.72;;;18.72;57.88
63204;BME280;49297;43.210;27.914;2023-05-23T02:52:37;100703.91;;;18.72;58.04
63204;BME280;49297;43.210;27.914;2023-05-23T02:55:04;100704.09;;;18.71;58.07
63204;BME280;49297;43.210;27.914;2023-05-23T02:57:29;100712.16;;;18.71;58.25
63204;BME280;49297;43.210;27.914;2023-05-23T02:59:56;100709.28;;;18.72;58.15
63204;BME280;49297;43.210;27.914;2023-05-23T03:02:22;100716.94;;;18.75;58.02
63204;BME280;49297;43.210;27.914;2023-05-23T03:04:48;100705.00;;;18.78;57.90
63204;BME280;49297;43.210;27.914;2023-05-23T03:07:15;100705.63;;;18.80;57.66
63204;BME280;49297;43.210;27.914;2023-05-23T03:09:44;100696.44;;;18.82;57.78
63204;BME280;49297;43.210;27.914;2023-05-23T03:12:10;100693.25;;;18.79;57.69
63204;BME280;49297;43.210;27.914;2023-05-23T03:14:36;100706.00;;;18.77;57.99
63204;BME280;49297;43.210;27.914;2023-05-23T03:17:02;100702.69;;;18.75;58.08
63204;BME280;49297;43.210;27.914;2023-05-23T03:19:28;100713.41;;;18.75;57.88
63204;BME280;49297;43.210;27.914;2023-05-23T03:21:55;100697.13;;;18.76;57.87
63204;BME280;49297;43.210;27.914;2023-05-23T03:24:20;100706.00;;;18.77;57.84
63204;BME280;49297;43.210;27.914;2023-05-23T03:26:47;100707.50;;;18.79;57.99
63204;BME280;49297;43.210;27.914;2023-05-23T03:29:12;100713.34;;;18.83;57.57
63204;BME280;49297;43.210;27.914;2023-05-23T03:31:38;100712.78;;;18.88;57.61
63204;BME280;49297;43.210;27.914;2023-05-23T03:34:04;100714.84;;;18.92;57.53
63204;BME280;49297;43.210;27.914;2023-05-23T03:36:30;100719.03;;;18.95;57.39
63204;BME280;49297;43.210;27.914;2023-05-23T03:39:00;100715.94;;;18.98;57.53
63204;BME280;49297;43.210;27.914;2023-05-23T03:41:26;100717.59;;;18.99;57.42
63204;BME280;49297;43.210;27.914;2023-05-23T03:43:53;100716.78;;;18.98;57.10
63204;BME280;49297;43.210;27.914;2023-05-23T03:46:19;100725.28;;;19.02;57.11
63204;BME280;49297;43.210;27.914;2023-05-23T03:48:44;100723.47;;;19.09;57.25
63204;BME280;49297;43.210;27.914;2023-05-23T03:51:12;100732.34;;;19.10;57.12
63204;BME280;49297;43.210;27.914;2023-05-23T03:53:38;100736.50;;;19.12;56.91
63204;BME280;49297;43.210;27.914;2023-05-23T03:56:07;100734.44;;;19.14;56.87
63204;BME280;49297;43.210;27.914;2023-05-23T03:58:33;100742.50;;;19.14;56.95
63204;BME280;49297;43.210;27.914;2023-05-23T04:00:59;100744.97;;;19.16;56.91
63204;BME280;49297;43.210;27.914;2023-05-23T04:03:26;100737.34;;;19.13;57.02
63204;BME280;49297;43.210;27.914;2023-05-23T04:05:53;100741.66;;;19.14;56.92
63204;BME280;49297;43.210;27.914;2023-05-23T04:08:19;100742.09;;;19.17;56.85
63204;BME280;49297;43.210;27.914;2023-05-23T04:10:47;100734.91;;;19.18;57.00
63204;BME280;49297;43.210;27.914;2023-05-23T04:13:13;100751.44;;;19.21;56.89
63204;BME280;49297;43.210;27.914;2023-05-23T04:15:39;100734.50;;;19.21;56.85
63204;BME280;49297;43.210;27.914;2023-05-23T04:18:05;100735.34;;;19.21;56.94
63204;BME280;49297;43.210;27.914;2023-05-23T04:20:33;100739.06;;;19.20;56.60
63204;BME280;49297;43.210;27.914;2023-05-23T04:23:00;100734.31;;;19.23;57.02
63204;BME280;49297;43.210;27.914;2023-05-23T04:25:28;100741.16;;;19.25;56.78
63204;BME280;49297;43.210;27.914;2023-05-23T04:28:00;100747.16;;;19.27;56.75
63204;BME280;49297;43.210;27.914;2023-05-23T04:30:26;100745.28;;;19.28;56.64
63204;BME280;49297;43.210;27.914;2023-05-23T04:32:55;100746.13;;;19.28;56.51
63204;BME280;49297;43.210;27.914;2023-05-23T04:35:24;100742.03;;;19.32;56.47
63204;BME280;49297;43.210;27.914;2023-05-23T04:37:51;100745.16;;;19.36;56.59
63204;BME280;49297;43.210;27.914;2023-05-23T04:40:24;100753.22;;;19.36;56.37
63204;BME280;49297;43.210;27.914;2023-05-23T04:42:50;100753.59;;;19.33;56.59
63204;BME280;49297;43.210;27.914;2023-05-23T04:45:16;100765.75;;;19.29;57.03
63204;BME280;49297;43.210;27.914;2023-05-23T04:47:44;100761.03;;;19.31;57.06
63204;BME280;49297;43.210;27.914;2023-05-23T04:50:11;100764.34;;;19.33;56.87
63204;BME280;49297;43.210;27.914;2023-05-23T04:52:38;100762.66;;;19.32;56.97
63204;BME280;49297;43.210;27.914;2023-05-23T04:55:04;100759.41;;;19.36;56.90
63204;BME280;49297;43.210;27.914;2023-05-23T04:57:31;100755.50;;;19.39;56.90
63204;BME280;49297;43.210;27.914;2023-05-23T04:59:57;100764.41;;;19.39;56.62
63204;BME280;49297;43.210;27.914;2023-05-23T05:02:23;100761.31;;;19.43;56.55
63204;BME280;49297;43.210;27.914;2023-05-23T05:04:48;100754.53;;;19.47;56.46
63204;BME280;49297;43.210;27.914;2023-05-23T05:07:14;100759.50;;;19.50;56.22
63204;BME280;49297;43.210;27.914;2023-05-23T05:09:43;100757.25;;;19.53;56.20
63204;BME280;49297;43.210;27.914;2023-05-23T05:12:10;100763.91;;;19.57;56.29
63204;BME280;49297;43.210;27.914;2023-05-23T05:14:36;100765.38;;;19.60;55.85
63204;BME280;49297;43.210;27.914;2023-05-23T05:17:02;100766.63;;;19.64;55.90
63204;BME280;49297;43.210;27.914;2023-05-23T05:19:28;100767.91;;;19.68;55.95
63204;BME280;49297;43.210;27.914;2023-05-23T05:21:54;100775.19;;;19.74;55.60
63204;BME280;49297;43.210;27.914;2023-05-23T05:24:22;100777.13;;;19.81;55.26
63204;BME280;49297;43.210;27.914;2023-05-23T05:26:48;100787.25;;;19.85;55.22
63204;BME280;49297;43.210;27.914;2023-05-23T05:29:15;100780.47;;;19.89;55.26
63204;BME280;49297;43.210;27.914;2023-05-23T05:31:41;100780.69;;;19.94;54.79
63204;BME280;49297;43.210;27.914;2023-05-23T05:34:10;100780.50;;;19.96;54.71
63204;BME280;49297;43.210;27.914;2023-05-23T05:36:36;100785.88;;;19.96;54.71
63204;BME280;49297;43.210;27.914;2023-05-23T05:39:03;100789.41;;;20.03;54.81
63204;BME280;49297;43.210;27.914;2023-05-23T05:41:31;100788.22;;;20.06;54.36
63204;BME280;49297;43.210;27.914;2023-05-23T05:43:57;100786.97;;;20.08;54.29
63204;BME280;49297;43.210;27.914;2023-05-23T05:46:24;100788.44;;;20.11;54.25
63204;BME280;49297;43.210;27.914;2023-05-23T05:48:50;100796.09;;;20.14;54.11
63204;BME280;49297;43.210;27.914;2023-05-23T05:51:16;100794.69;;;20.18;54.32
63204;BME280;49297;43.210;27.914;2023-05-23T05:53:42;100796.75;;;20.23;54.43
63204;BME280;49297;43.210;27.914;2023-05-23T05:56:09;100805.25;;;20.26;54.47
63204;BME280;49297;43.210;27.914;2023-05-23T05:58:35;100799.28;;;20.31;54.56
63204;BME280;49297;43.210;27.914;2023-05-23T06:01:01;100794.97;;;20.37;54.48
63204;BME280;49297;43.210;27.914;2023-05-23T06:03:26;100793.97;;;20.44;54.02
63204;BME280;49297;43.210;27.914;2023-05-23T06:05:53;100796.44;;;20.46;54.33
63204;BME280;49297;43.210;27.914;2023-05-23T06:08:20;100806.63;;;20.50;54.46
63204;BME280;49297;43.210;27.914;2023-05-23T06:10:46;100809.13;;;20.52;54.47
63204;BME280;49297;43.210;27.914;2023-05-23T06:13:12;100794.63;;;20.53;54.46
63204;BME280;49297;43.210;27.914;2023-05-23T06:15:39;100799.41;;;20.58;54.36
63204;BME280;49297;43.210;27.914;2023-05-23T06:18:07;100795.91;;;20.57;54.28
63204;BME280;49297;43.210;27.914;2023-05-23T06:20:36;100800.03;;;20.60;54.39
63204;BME280;49297;43.210;27.914;2023-05-23T06:23:02;100800.69;;;20.62;54.30
63204;BME280;49297;43.210;27.914;2023-05-23T06:25:30;100798.03;;;20.68;54.49
63204;BME280;49297;43.210;27.914;2023-05-23T06:27:56;100800.53;;;20.77;54.24
63204;BME280;49297;43.210;27.914;2023-05-23T06:30:22;100803.84;;;20.79;53.80
63204;BME280;49297;43.210;27.914;2023-05-23T06:32:54;100808.81;;;20.82;53.65
63204;BME280;49297;43.210;27.914;2023-05-23T06:35:27;100811.72;;;20.87;53.35
63204;BME280;49297;43.210;27.914;2023-05-23T06:37:53;100803.66;;;20.94;53.59
63204;BME280;49297;43.210;27.914;2023-05-23T06:40:20;100806.38;;;21.00;53.39
63204;BME280;49297;43.210;27.914;2023-05-23T06:42:47;100808.25;;;21.06;53.26
63204;BME280;49297;43.210;27.914;2023-05-23T06:45:13;100806.41;;;21.07;53.27
63204;BME280;49297;43.210;27.914;2023-05-23T06:47:39;100805.34;;;21.08;53.43
63204;BME280;49297;43.210;27.914;2023-05-23T06:50:08;100805.16;;;21.09;53.40
63204;BME280;49297;43.210;27.914;2023-05-23T06:52:34;100802.66;;;21.08;53.23
63204;BME280;49297;43.210;27.914;2023-05-23T06:55:00;100800.16;;;21.06;53.35
63204;BME280;49297;43.210;27.914;2023-05-23T06:57:26;100804.72;;;20.99;53.60
63204;BME280;49297;43.210;27.914;2023-05-23T06:59:51;100802.66;;;20.95;53.60
63204;BME280;49297;43.210;27.914;2023-05-23T07:02:17;100800.59;;;20.97;53.87
63204;BME280;49297;43.210;27.914;2023-05-23T07:04:43;100792.31;;;20.98;54.22
63204;BME280;49297;43.210;27.914;2023-05-23T07:07:08;100795.19;;;20.97;54.24
63204;BME280;49297;43.210;27.914;2023-05-23T07:09:35;100794.16;;;20.98;53.71
63204;BME280;49297;43.210;27.914;2023-05-23T07:12:02;100788.75;;;20.98;54.41
63204;BME280;49297;43.210;27.914;2023-05-23T07:14:27;100792.31;;;20.98;54.44
63204;BME280;49297;43.210;27.914;2023-05-23T07:16:53;100792.53;;;21.03;54.39
63204;BME280;49297;43.210;27.914;2023-05-23T07:19:19;100788.78;;;21.04;54.29
63204;BME280;49297;43.210;27.914;2023-05-23T07:21:44;100788.19;;;21.09;54.45
63204;BME280;49297;43.210;27.914;2023-05-23T07:24:10;100796.47;;;21.14;56.25
63204;BME280;49297;43.210;27.914;2023-05-23T07:26:36;100797.91;;;21.10;55.29
63204;BME280;49297;43.210;27.914;2023-05-23T07:29:03;100795.84;;;21.05;54.76
63204;BME280;49297;43.210;27.914;2023-05-23T07:31:28;100795.19;;;20.97;55.04
63204;BME280;49297;43.210;27.914;2023-05-23T07:33:54;100790.00;;;20.95;55.82
63204;BME280;49297;43.210;27.914;2023-05-23T07:36:21;100785.25;;;20.97;56.28
63204;BME280;49297;43.210;27.914;2023-05-23T07:38:47;100786.69;;;21.00;55.71
63204;BME280;49297;43.210;27.914;2023-05-23T07:41:13;100783.59;;;21.03;56.94
63204;BME280;49297;43.210;27.914;2023-05-23T07:43:39;100782.59;;;21.04;56.49
63204;BME280;49297;43.210;27.914;2023-05-23T07:46:05;100787.75;;;21.05;56.62
63204;BME280;49297;43.210;27.914;2023-05-23T07:48:31;100791.28;;;21.06;56.37
63204;BME280;49297;43.210;27.914;2023-05-23T07:50:57;100788.38;;;21.07;56.60
63204;BME280;49297;43.210;27.914;2023-05-23T07:53:23;100786.72;;;21.13;56.56
63204;BME280;49297;43.210;27.914;2023-05-23T07:55:48;100786.31;;;21.16;56.49
63204;BME280;49297;43.210;27.914;2023-05-23T07:58:14;100795.22;;;21.23;55.99
63204;BME280;49297;43.210;27.914;2023-05-23T08:00:40;100792.75;;;21.28;56.01
63204;BME280;49297;43.210;27.914;2023-05-23T08:03:06;100797.91;;;21.30;55.39
63204;BME280;49297;43.210;27.914;2023-05-23T08:05:32;100801.00;;;21.34;55.54
63204;BME280;49297;43.210;27.914;2023-05-23T08:07:58;100801.88;;;21.41;55.50
63204;BME280;49297;43.210;27.914;2023-05-23T08:10:24;100802.50;;;21.43;55.24
63204;BME280;49297;43.210;27.914;2023-05-23T08:12:53;100800.41;;;21.45;55.13
63204;BME280;49297;43.210;27.914;2023-05-23T08:15:19;100786.78;;;21.46;55.31
63204;BME280;49297;43.210;27.914;2023-05-23T08:17:45;100788.63;;;21.53;55.32
63204;BME280;49297;43.210;27.914;2023-05-23T08:20:11;100789.03;;;21.63;55.06
63204;BME280;49297;43.210;27.914;2023-05-23T08:22:37;100787.97;;;21.77;55.56
63204;BME280;49297;43.210;27.914;2023-05-23T08:25:04;100797.28;;;21.81;55.58
63204;BME280;49297;43.210;27.914;2023-05-23T08:27:30;100787.78;;;21.85;55.79
63204;BME280;49297;43.210;27.914;2023-05-23T08:29:55;100787.34;;;21.89;55.87
63204;BME280;49297;43.210;27.914;2023-05-23T08:32:21;100786.72;;;21.86;56.49
63204;BME280;49297;43.210;27.914;2023-05-23T08:34:47;100784.22;;;21.92;56.86
63204;BME280;49297;43.210;27.914;2023-05-23T08:37:13;100781.31;;;22.00;57.36
63204;BME280;49297;43.210;27.914;2023-05-23T08:39:39;100784.41;;;22.03;57.02
63204;BME280;49297;43.210;27.914;2023-05-23T08:42:06;100781.44;;;22.18;56.92
63204;BME280;49297;43.210;27.914;2023-05-23T08:44:32;100780.78;;;22.36;54.47
63204;BME280;49297;43.210;27.914;2023-05-23T08:47:02;100782.38;;;22.51;53.70
63204;BME280;49297;43.210;27.914;2023-05-23T08:49:31;100776.97;;;22.57;53.20
63204;BME280;49297;43.210;27.914;2023-05-23T08:52:00;100781.47;;;22.63;53.03
63204;BME280;49297;43.210;27.914;2023-05-23T08:54:26;100792.47;;;22.69;53.79
63204;BME280;49297;43.210;27.914;2023-05-23T08:56:53;100787.06;;;22.69;52.70
63204;BME280;49297;43.210;27.914;2023-05-23T08:59:20;100793.06;;;22.71;52.46
63204;BME280;49297;43.210;27.914;2023-05-23T09:01:47;100794.09;;;22.76;52.68
63204;BME280;49297;43.210;27.914;2023-05-23T09:04:13;100798.53;;;22.64;55.00
63204;BME280;49297;43.210;27.914;2023-05-23T09:06:39;100796.56;;;22.26;56.51
63204;BME280;49297;43.210;27.914;2023-05-23T09:09:04;100804.09;;;22.04;57.73
63204;BME280;49297;43.210;27.914;2023-05-23T09:11:31;100795.44;;;21.82;58.47
63204;BME280;49297;43.210;27.914;2023-05-23T09:14:00;100800.63;;;21.63;59.22
63204;BME280;49297;43.210;27.914;2023-05-23T09:16:31;100794.00;;;21.46;59.66
63204;BME280;49297;43.210;27.914;2023-05-23T09:18:58;100786.75;;;21.53;60.13
63204;BME280;49297;43.210;27.914;2023-05-23T09:21:24;100773.91;;;21.68;60.01
63204;BME280;49297;43.210;27.914;2023-05-23T09:23:51;100780.97;;;21.63;60.02
63204;BME280;49297;43.210;27.914;2023-05-23T09:26:16;100777.25;;;21.51;60.13
63204;BME280;49297;43.210;27.914;2023-05-23T09:28:43;100777.22;;;21.37;60.34
63204;BME280;49297;43.210;27.914;2023-05-23T09:31:09;100775.75;;;21.28;60.58
63204;BME280;49297;43.210;27.914;2023-05-23T09:33:45;100782.19;;;21.20;60.26
63204;BME280;49297;43.210;27.914;2023-05-23T09:36:13;100782.59;;;21.10;60.90
63204;BME280;49297;43.210;27.914;2023-05-23T09:38:40;100770.78;;;21.11;60.80
63204;BME280;49297;43.210;27.914;2023-05-23T09:41:06;100785.88;;;21.19;60.58
63204;BME280;49297;43.210;27.914;2023-05-23T09:43:32;100789.22;;;21.21;60.20
63204;BME280;49297;43.210;27.914;2023-05-23T09:46:10;100789.22;;;21.15;60.67
63204;BME280;49297;43.210;27.914;2023-05-23T09:48:37;100791.06;;;21.07;60.71
63204;BME280;49297;43.210;27.914;2023-05-23T09:51:04;100792.94;;;21.00;60.85
63204;BME280;49297;43.210;27.914;2023-05-23T09:53:31;100794.38;;;21.03;61.12
63204;BME280;49297;43.210;27.914;2023-05-23T09:56:01;100797.25;;;21.01;60.84
63204;BME280;49297;43.210;27.914;2023-05-23T09:58:27;100806.59;;;21.12;61.42
63204;BME280;49297;43.210;27.914;2023-05-23T10:00:58;100811.38;;;21.23;61.20
63204;BME280;49297;43.210;27.914;2023-05-23T10:03:38;100824.00;;;21.29;60.93
63204;BME280;49297;43.210;27.914;2023-05-23T10:06:43;100813.88;;;21.18;60.25
63204;BME280;49297;43.210;27.914;2023-05-23T10:09:12;100819.00;;;21.00;59.88
63204;BME280;49297;43.210;27.914;2023-05-23T10:14:43;100826.41;;;20.78;60.84
63204;BME280;49297;43.210;27.914;2023-05-23T10:17:38;100829.00;;;20.58;61.52
63204;BME280;49297;43.210;27.914;2023-05-23T10:20:10;100828.31;;;20.49;62.07
63204;BME280;49297;43.210;27.914;2023-05-23T10:22:39;100821.22;;;20.34;62.13
63204;BME280;49297;43.210;27.914;2023-05-23T10:25:07;100821.72;;;20.10;62.51
63204;BME280;49297;43.210;27.914;2023-05-23T10:27:36;100819.28;;;19.87;63.00
63204;BME280;49297;43.210;27.914;2023-05-23T10:30:03;100827.44;;;19.72;63.66
63204;BME280;49297;43.210;27.914;2023-05-23T10:32:30;100827.13;;;19.60;64.58
63204;BME280;49297;43.210;27.914;2023-05-23T10:40:57;100838.44;;;19.34;66.03
63204;BME280;49297;43.210;27.914;2023-05-23T10:43:53;100835.47;;;19.22;65.39
63204;BME280;49297;43.210;27.914;2023-05-23T10:46:22;100845.88;;;19.10;66.74
63204;BME280;49297;43.210;27.914;2023-05-23T10:48:53;100856.06;;;19.00;67.24
63204;BME280;49297;43.210;27.914;2023-05-23T10:51:21;100857.78;;;18.86;67.90
63204;BME280;49297;43.210;27.914;2023-05-23T10:53:53;100859.44;;;18.72;68.77
63204;BME280;49297;43.210;27.914;2023-05-23T10:56:37;100861.22;;;18.65;69.89
63204;BME280;49297;43.210;27.914;2023-05-23T10:59:26;100867.22;;;18.67;70.87
63204;BME280;49297;43.210;27.914;2023-05-23T11:01:52;100864.16;;;18.70;71.16
63204;BME280;49297;43.210;27.914;2023-05-23T11:04:26;100853.00;;;18.67;71.29
63204;BME280;49297;43.210;27.914;2023-05-23T11:06:56;100859.19;;;18.67;71.30
63204;BME280;49297;43.210;27.914;2023-05-23T11:09:22;100853.25;;;18.72;71.38
63204;BME280;49297;43.210;27.914;2023-05-23T11:14:16;100849.44;;;18.81;71.64
63204;BME280;49297;43.210;27.914;2023-05-23T11:16:43;100849.44;;;18.81;71.68
63204;BME280;49297;43.210;27.914;2023-05-23T11:19:21;100843.78;;;18.91;71.87
63204;BME280;49297;43.210;27.914;2023-05-23T11:21:59;100840.81;;;19.00;71.73
63204;BME280;49297;43.210;27.914;2023-05-23T11:24:54;100839.50;;;19.11;71.54
63204;BME280;49297;43.210;27.914;2023-05-23T11:30:12;100838.47;;;19.55;71.05
63204;BME280;49297;43.210;27.914;2023-05-23T11:32:38;100842.03;;;19.63;70.37
63204;BME280;49297;43.210;27.914;2023-05-23T11:35:05;100846.56;;;19.62;70.00
63204;BME280;49297;43.210;27.914;2023-05-23T11:37:32;100836.69;;;19.69;69.99
63204;BME280;49297;43.210;27.914;2023-05-23T11:39:58;100831.09;;;19.92;69.98
63204;BME280;49297;43.210;27.914;2023-05-23T11:42:24;100840.19;;;20.20;69.49
63204;BME280;49297;43.210;27.914;2023-05-23T11:44:51;100841.06;;;20.68;68.60
63204;BME280;49297;43.210;27.914;2023-05-23T11:47:17;100840.56;;;21.20;66.50
63204;BME280;49297;43.210;27.914;2023-05-23T11:49:44;100826.97;;;21.48;64.55
63204;BME280;49297;43.210;27.914;2023-05-23T11:52:11;100835.66;;;21.57;63.58
63204;BME280;49297;43.210;27.914;2023-05-23T11:54:40;100829.00;;;21.39;63.46
63204;BME280;49297;43.210;27.914;2023-05-23T11:57:07;100830.69;;;21.54;63.93
63204;BME280;49297;43.210;27.914;2023-05-23T11:59:32;100832.31;;;21.95;62.33
63204;BME280;49297;43.210;27.914;2023-05-23T12:02:01;100827.91;;;22.20;61.33
63204;BME280;49297;43.210;27.914;2023-05-23T12:04:27;100827.09;;;22.06;60.26
63204;BME280;49297;43.210;27.914;2023-05-23T12:06:53;100822.28;;;22.22;61.36
63204;BME280;49297;43.210;27.914;2023-05-23T12:09:19;100824.66;;;23.02;59.61
63204;BME280;49297;43.210;27.914;2023-05-23T12:11:47;100809.25;;;23.41;57.32
63204;BME280;49297;43.210;27.914;2023-05-23T12:14:16;100816.50;;;23.15;57.50
63204;BME280;49297;43.210;27.914;2023-05-23T12:16:43;100815.75;;;22.63;57.03
63204;BME280;49297;43.210;27.914;2023-05-23T12:19:11;100814.44;;;22.14;57.53
63204;BME280;49297;43.210;27.914;2023-05-23T12:21:46;100815.13;;;21.69;59.70
63204;BME280;49297;43.210;27.914;2023-05-23T12:24:21;100815.97;;;21.43;61.19
63204;BME280;49297;43.210;27.914;2023-05-23T12:26:47;100813.44;;;21.15;61.29
63204;BME280;49297;43.210;27.914;2023-05-23T12:29:13;100817.31;;;20.92;61.63
63204;BME280;49297;43.210;27.914;2023-05-23T12:31:39;100809.81;;;20.74;63.10
63204;BME280;49297;43.210;27.914;2023-05-23T12:34:05;100812.06;;;20.64;63.22
63204;BME280;49297;43.210;27.914;2023-05-23T12:36:30;100806.91;;;20.69;63.57
63204;BME280;49297;43.210;27.914;2023-05-23T12:39:03;100800.38;;;21.11;62.11
63204;BME280;49297;43.210;27.914;2023-05-23T12:41:32;100794.19;;;21.31;61.58
63204;BME280;49297;43.210;27.914;2023-05-23T12:43:58;100792.91;;;22.00;60.16
63204;BME280;49297;43.210;27.914;2023-05-23T12:46:25;100794.72;;;22.72;58.19
63204;BME280;49297;43.210;27.914;2023-05-23T12:48:51;100803.50;;;23.31;56.54
63204;BME280;49297;43.210;27.914;2023-05-23T12:51:18;100793.63;;;23.68;55.29
63204;BME280;49297;43.210;27.914;2023-05-23T12:53:44;100798.47;;;23.85;53.16
63204;BME280;49297;43.210;27.914;2023-05-23T12:56:10;100796.66;;;23.79;53.28
63204;BME280;49297;43.210;27.914;2023-05-23T12:58:35;100796.38;;;23.62;53.43
63204;BME280;49297;43.210;27.914;2023-05-23T13:01:02;100791.34;;;23.47;53.76
63204;BME280;49297;43.210;27.914;2023-05-23T13:03:28;100799.84;;;23.18;54.47